sensor_id;sensor_type;location;lat;lon;timestamp;temperature;humidity
16247;DHT22;8231;50.866;7.944;2022-11-21T00:01:18;5.90;99.90
16247;DHT22;8231;50.866;7.944;2022-11-21T00:03:46;5.90;99.90
16247;DHT22;8231;50.866;7.944;2022-11-21T00:06:15;6.00;99.90
16247;DHT22;8231;50.866;7.944;2022-11-21T00:08:43;5.90;99.90
16247;DHT22;8231;50.866;7.944;2022-11-21T00:11:12;5.90;99.90
16247;DHT22;8231;50.866;7.944;2022-11-21T00:13:40;5.90;99.90
16247;DHT22;8231;50.866;7.944;2022-11-21T00:16:11;5.90;99.90
16247;DHT22;8231;50.866;7.944;2022-11-21T00:18:40;5.90;99.90
16247;DHT22;8231;50.866;7.944;2022-11-21T00:21:11;5.90;99.90
16247;DHT22;8231;50.866;7.944;2022-11-21T00:23:39;5.90;99.90
16247;DHT22;8231;50.866;7.944;2022-11-21T00:26:09;5.90;99.90
16247;DHT22;8231;50.866;7.944;2022-11-21T00:28:37;5.90;99.90
16247;DHT22;8231;50.866;7.944;2022-11-21T00:31:06;6.00;99.90
16247;DHT22;8231;50.866;7.944;2022-11-21T00:33:34;5.90;99.90
16247;DHT22;8231;50.866;7.944;2022-11-21T00:36:08;5.80;99.90
16247;DHT22;8231;50.866;7.944;2022-11-21T00:38:36;5.80;99.90
16247;DHT22;8231;50.866;7.944;2022-11-21T00:41:05;5.90;99.90
16247;DHT22;8231;50.866;7.944;2022-11-21T00:43:33;5.80;99.90
16247;DHT22;8231;50.866;7.944;2022-11-21T00:46:01;5.80;99.90
16247;DHT22;8231;50.866;7.944;2022-11-21T00:48:30;5.90;99.90
16247;DHT22;8231;50.866;7.944;2022-11-21T00:50:59;5.90;99.90
16247;DHT22;8231;50.866;7.944;2022-11-21T00:53:29;5.80;99.90
16247;DHT22;8231;50.866;7.944;2022-11-21T00:55:57;5.90;99.90
16247;DHT22;8231;50.866;7.944;2022-11-21T00:58:25;5.80;99.90
16247;DHT22;8231;50.866;7.944;2022-11-21T01:01:02;5.80;99.90
16247;DHT22;8231;50.866;7.944;2022-11-21T01:03:32;5.80;99.90
16247;DHT22;8231;50.866;7.944;2022-11-21T01:06:03;5.80;99.90
16247;DHT22;8231;50.866;7.944;2022-11-21T01:08:34;5.80;99.90
16247;DHT22;8231;50.866;7.944;2022-11-21T01:11:03;5.80;99.90
16247;DHT22;8231;50.866;7.944;2022-11-21T01:13:31;5.80;99.90
16247;DHT22;8231;50.866;7.944;2022-11-21T01:16:02;5.80;99.90
16247;DHT22;8231;50.866;7.944;2022-11-21T01:18:30;5.80;99.90
16247;DHT22;8231;50.866;7.944;2022-11-21T01:20:59;5.70;99.90
16247;DHT22;8231;50.866;7.944;2022-11-21T01:23:28;5.80;99.90
16247;DHT22;8231;50.866;7.944;2022-11-21T01:26:01;5.70;99.90
16247;DHT22;8231;50.866;7.944;2022-11-21T01:28:30;5.70;99.90
16247;DHT22;8231;50.866;7.944;2022-11-21T01:31:03;5.70;99.90
16247;DHT22;8231;50.866;7.944;2022-11-21T01:33:32;5.60;99.90
16247;DHT22;8231;50.866;7.944;2022-11-21T01:36:08;5.60;99.90
16247;DHT22;8231;50.866;7.944;2022-11-21T01:38:37;5.70;99.90
16247;DHT22;8231;50.866;7.944;2022-11-21T01:41:07;5.70;99.90
16247;DHT22;8231;50.866;7.944;2022-11-21T01:43:36;5.60;99.90
16247;DHT22;8231;50.866;7.944;2022-11-21T01:46:10;5.70;99.90
16247;DHT22;8231;50.866;7.944;2022-11-21T01:48:43;5.70;99.90
16247;DHT22;8231;50.866;7.944;2022-11-21T01:51:17;5.70;99.90
16247;DHT22;8231;50.866;7.944;2022-11-21T01:53:50;5.70;99.90
16247;DHT22;8231;50.866;7.944;2022-11-21T01:56:21;5.70;99.90
16247;DHT22;8231;50.866;7.944;2022-11-21T01:58:52;5.70;99.90
16247;DHT22;8231;50.866;7.944;2022-11-21T02:01:21;5.60;99.90
16247;DHT22;8231;50.866;7.944;2022-11-21T02:03:50;5.70;99.90
16247;DHT22;8231;50.866;7.944;2022-11-21T02:06:19;5.80;99.90
16247;DHT22;8231;50.866;7.944;2022-11-21T02:08:48;5.70;99.90
16247;DHT22;8231;50.866;7.944;2022-11-21T02:11:23;5.70;99.90
16247;DHT22;8231;50.866;7.944;2022-11-21T02:13:54;5.70;99.90
16247;DHT22;8231;50.866;7.944;2022-11-21T02:16:23;5.70;99.90
16247;DHT22;8231;50.866;7.944;2022-11-21T02:18:52;5.70;99.90
16247;DHT22;8231;50.866;7.944;2022-11-21T02:21:25;5.70;99.90
16247;DHT22;8231;50.866;7.944;2022-11-21T02:23:59;5.70;99.90
16247;DHT22;8231;50.866;7.944;2022-11-21T02:26:31;5.60;99.90
16247;DHT22;8231;50.866;7.944;2022-11-21T02:28:59;5.60;99.90
16247;DHT22;8231;50.866;7.944;2022-11-21T02:31:27;5.60;99.90
16247;DHT22;8231;50.866;7.944;2022-11-21T02:33:55;5.70;99.90
16247;DHT22;8231;50.866;7.944;2022-11-21T02:36:39;5.70;99.90
16247;DHT22;8231;50.866;7.944;2022-11-21T02:39:12;5.60;99.90
16247;DHT22;8231;50.866;7.944;2022-11-21T02:41:48;5.60;99.90
16247;DHT22;8231;50.866;7.944;2022-11-21T02:44:21;5.60;99.90
16247;DHT22;8231;50.866;7.944;2022-11-21T02:46:52;5.60;99.90
16247;DHT22;8231;50.866;7.944;2022-11-21T02:49:27;5.60;99.90
16247;DHT22;8231;50.866;7.944;2022-11-21T02:51:57;5.60;99.90
16247;DHT22;8231;50.866;7.944;2022-11-21T02:54:25;5.60;99.90
16247;DHT22;8231;50.866;7.944;2022-11-21T02:56:55;5.60;99.90
16247;DHT22;8231;50.866;7.944;2022-11-21T02:59:23;5.60;99.90
16247;DHT22;8231;50.866;7.944;2022-11-21T03:01:51;5.70;99.90
16247;DHT22;8231;50.866;7.944;2022-11-21T03:04:19;5.60;99.90
16247;DHT22;8231;50.866;7.944;2022-11-21T03:06:47;5.60;99.90
16247;DHT22;8231;50.866;7.944;2022-11-21T03:09:16;5.70;99.90
16247;DHT22;8231;50.866;7.944;2022-11-21T03:11:44;5.60;99.90
16247;DHT22;8231;50.866;7.944;2022-11-21T03:14:14;5.70;99.90
16247;DHT22;8231;50.866;7.944;2022-11-21T03:16:42;5.70;99.90
16247;DHT22;8231;50.866;7.944;2022-11-21T03:19:10;6.00;99.90
16247;DHT22;8231;50.866;7.944;2022-11-21T03:21:38;5.60;99.90
16247;DHT22;8231;50.866;7.944;2022-11-21T03:24:07;5.60;99.90
16247;DHT22;8231;50.866;7.944;2022-11-21T03:26:35;5.60;99.90
16247;DHT22;8231;50.866;7.944;2022-11-21T03:29:03;5.70;99.90
16247;DHT22;8231;50.866;7.944;2022-11-21T03:31:33;5.60;99.90
16247;DHT22;8231;50.866;7.944;2022-11-21T03:34:02;5.60;99.90
16247;DHT22;8231;50.866;7.944;2022-11-21T03:36:30;5.60;99.90
16247;DHT22;8231;50.866;7.944;2022-11-21T03:38:58;5.50;99.90
16247;DHT22;8231;50.866;7.944;2022-11-21T03:41:26;5.50;99.90
16247;DHT22;8231;50.866;7.944;2022-11-21T03:43:58;5.50;99.90
16247;DHT22;8231;50.866;7.944;2022-11-21T03:46:27;5.50;99.90
16247;DHT22;8231;50.866;7.944;2022-11-21T03:48:57;5.50;99.90
16247;DHT22;8231;50.866;7.944;2022-11-21T03:51:26;5.40;99.90
16247;DHT22;8231;50.866;7.944;2022-11-21T03:53:54;5.50;99.90
16247;DHT22;8231;50.866;7.944;2022-11-21T03:56:22;6.00;99.90
16247;DHT22;8231;50.866;7.944;2022-11-21T03:58:51;5.50;99.90
16247;DHT22;8231;50.866;7.944;2022-11-21T04:01:19;5.40;99.90
16247;DHT22;8231;50.866;7.944;2022-11-21T04:03:48;5.40;99.90
16247;DHT22;8231;50.866;7.944;2022-11-21T04:06:20;5.50;99.90
16247;DHT22;8231;50.866;7.944;2022-11-21T04:08:49;5.40;99.90
16247;DHT22;8231;50.866;7.944;2022-11-21T04:11:18;5.40;99.90
16247;DHT22;8231;50.866;7.944;2022-11-21T04:13:49;5.40;99.90
16247;DHT22;8231;50.866;7.944;2022-11-21T04:16:18;5.40;99.90
16247;DHT22;8231;50.866;7.944;2022-11-21T04:18:46;5.40;99.90
16247;DHT22;8231;50.866;7.944;2022-11-21T04:21:14;5.40;99.90
16247;DHT22;8231;50.866;7.944;2022-11-21T04:23:44;5.40;99.90
16247;DHT22;8231;50.866;7.944;2022-11-21T04:26:12;5.80;99.90
16247;DHT22;8231;50.866;7.944;2022-11-21T04:28:40;5.40;99.90
16247;DHT22;8231;50.866;7.944;2022-11-21T04:31:08;5.80;99.90
16247;DHT22;8231;50.866;7.944;2022-11-21T04:33:37;5.50;99.90
16247;DHT22;8231;50.866;7.944;2022-11-21T04:36:06;5.50;99.90
16247;DHT22;8231;50.866;7.944;2022-11-21T04:38:35;5.40;99.90
16247;DHT22;8231;50.866;7.944;2022-11-21T04:41:05;5.50;99.90
16247;DHT22;8231;50.866;7.944;2022-11-21T04:43:33;5.70;99.90
16247;DHT22;8231;50.866;7.944;2022-11-21T04:46:01;5.50;99.90
16247;DHT22;8231;50.866;7.944;2022-11-21T04:48:29;5.50;99.90
16247;DHT22;8231;50.866;7.944;2022-11-21T04:50:58;5.80;99.90
16247;DHT22;8231;50.866;7.944;2022-11-21T04:53:27;5.40;99.90
16247;DHT22;8231;50.866;7.944;2022-11-21T04:55:55;5.40;99.90
16247;DHT22;8231;50.866;7.944;2022-11-21T04:58:25;5.50;99.90
16247;DHT22;8231;50.866;7.944;2022-11-21T05:00:53;5.50;99.90
16247;DHT22;8231;50.866;7.944;2022-11-21T05:03:21;5.50;99.90
16247;DHT22;8231;50.866;7.944;2022-11-21T05:05:49;5.50;99.90
16247;DHT22;8231;50.866;7.944;2022-11-21T05:08:18;5.50;99.90
16247;DHT22;8231;50.866;7.944;2022-11-21T05:10:46;5.50;99.90
16247;DHT22;8231;50.866;7.944;2022-11-21T05:13:33;5.50;99.90
16247;DHT22;8231;50.866;7.944;2022-11-21T05:16:01;5.60;99.90
16247;DHT22;8231;50.866;7.944;2022-11-21T05:18:29;5.60;99.90
16247;DHT22;8231;50.866;7.944;2022-11-21T05:20:57;5.50;99.90
16247;DHT22;8231;50.866;7.944;2022-11-21T05:23:27;5.50;99.90
16247;DHT22;8231;50.866;7.944;2022-11-21T05:25:56;5.50;99.90
16247;DHT22;8231;50.866;7.944;2022-11-21T05:28:24;5.50;99.90
16247;DHT22;8231;50.866;7.944;2022-11-21T05:30:53;5.60;99.90
16247;DHT22;8231;50.866;7.944;2022-11-21T05:33:22;5.50;99.90
16247;DHT22;8231;50.866;7.944;2022-11-21T05:35:50;5.50;99.90
16247;DHT22;8231;50.866;7.944;2022-11-21T05:38:18;5.50;99.90
16247;DHT22;8231;50.866;7.944;2022-11-21T05:40:46;5.50;99.90
16247;DHT22;8231;50.866;7.944;2022-11-21T05:43:15;5.50;99.90
16247;DHT22;8231;50.866;7.944;2022-11-21T05:46:02;5.40;99.90
16247;DHT22;8231;50.866;7.944;2022-11-21T05:48:30;5.50;99.90
16247;DHT22;8231;50.866;7.944;2022-11-21T05:51:00;5.40;99.90
16247;DHT22;8231;50.866;7.944;2022-11-21T05:53:28;5.40;99.90
16247;DHT22;8231;50.866;7.944;2022-11-21T05:56:01;5.50;99.90
16247;DHT22;8231;50.866;7.944;2022-11-21T05:58:30;5.40;99.90
16247;DHT22;8231;50.866;7.944;2022-11-21T06:00:59;5.40;99.90
16247;DHT22;8231;50.866;7.944;2022-11-21T06:03:31;5.40;99.90
16247;DHT22;8231;50.866;7.944;2022-11-21T06:06:00;5.40;99.90
16247;DHT22;8231;50.866;7.944;2022-11-21T06:08:31;5.40;99.90
16247;DHT22;8231;50.866;7.944;2022-11-21T06:10:59;5.40;99.90
16247;DHT22;8231;50.866;7.944;2022-11-21T06:13:28;5.40;99.90
16247;DHT22;8231;50.866;7.944;2022-11-21T06:15:59;5.50;99.90
16247;DHT22;8231;50.866;7.944;2022-11-21T06:18:31;5.40;99.90
16247;DHT22;8231;50.866;7.944;2022-11-21T06:21:01;5.30;99.90
16247;DHT22;8231;50.866;7.944;2022-11-21T06:23:29;5.30;99.90
16247;DHT22;8231;50.866;7.944;2022-11-21T06:25:59;5.30;99.90
16247;DHT22;8231;50.866;7.944;2022-11-21T06:28:30;5.90;99.90
16247;DHT22;8231;50.866;7.944;2022-11-21T06:31:02;5.40;99.90
16247;DHT22;8231;50.866;7.944;2022-11-21T06:33:32;5.30;99.90
16247;DHT22;8231;50.866;7.944;2022-11-21T06:36:02;5.30;99.90
16247;DHT22;8231;50.866;7.944;2022-11-21T06:38:30;5.50;99.90
16247;DHT22;8231;50.866;7.944;2022-11-21T06:41:03;5.40;99.90
16247;DHT22;8231;50.866;7.944;2022-11-21T06:43:31;5.30;99.90
16247;DHT22;8231;50.866;7.944;2022-11-21T06:46:00;5.30;99.90
16247;DHT22;8231;50.866;7.944;2022-11-21T06:48:32;5.30;99.90
16247;DHT22;8231;50.866;7.944;2022-11-21T06:51:03;5.30;99.90
16247;DHT22;8231;50.866;7.944;2022-11-21T06:53:33;5.30;99.90
16247;DHT22;8231;50.866;7.944;2022-11-21T06:56:02;5.30;99.90
16247;DHT22;8231;50.866;7.944;2022-11-21T06:58:30;5.20;99.90
16247;DHT22;8231;50.866;7.944;2022-11-21T07:01:03;5.20;99.90
16247;DHT22;8231;50.866;7.944;2022-11-21T07:03:33;5.30;99.90
16247;DHT22;8231;50.866;7.944;2022-11-21T07:06:02;5.40;99.90
16247;DHT22;8231;50.866;7.944;2022-11-21T07:08:32;5.30;99.90
16247;DHT22;8231;50.866;7.944;2022-11-21T07:11:02;5.30;99.90
16247;DHT22;8231;50.866;7.944;2022-11-21T07:13:50;5.30;99.90
16247;DHT22;8231;50.866;7.944;2022-11-21T07:16:18;5.30;99.90
16247;DHT22;8231;50.866;7.944;2022-11-21T07:18:48;5.40;99.90
16247;DHT22;8231;50.866;7.944;2022-11-21T07:21:17;5.30;99.90
16247;DHT22;8231;50.866;7.944;2022-11-21T07:23:45;5.30;99.90
16247;DHT22;8231;50.866;7.944;2022-11-21T07:26:14;5.30;99.90
16247;DHT22;8231;50.866;7.944;2022-11-21T07:28:42;5.30;99.90
16247;DHT22;8231;50.866;7.944;2022-11-21T07:31:11;5.30;99.90
16247;DHT22;8231;50.866;7.944;2022-11-21T07:33:40;5.30;99.90
16247;DHT22;8231;50.866;7.944;2022-11-21T07:36:12;5.30;99.90
16247;DHT22;8231;50.866;7.944;2022-11-21T07:38:40;5.30;99.90
16247;DHT22;8231;50.866;7.944;2022-11-21T07:41:09;5.30;99.90
16247;DHT22;8231;50.866;7.944;2022-11-21T07:43:37;5.30;99.90
16247;DHT22;8231;50.866;7.944;2022-11-21T07:46:05;5.40;99.90
16247;DHT22;8231;50.866;7.944;2022-11-21T07:48:33;5.70;99.90
16247;DHT22;8231;50.866;7.944;2022-11-21T07:51:03;5.40;99.90
16247;DHT22;8231;50.866;7.944;2022-11-21T07:53:33;5.40;99.90
16247;DHT22;8231;50.866;7.944;2022-11-21T07:56:01;5.40;99.90
16247;DHT22;8231;50.866;7.944;2022-11-21T07:58:30;5.40;99.90
16247;DHT22;8231;50.866;7.944;2022-11-21T08:01:02;5.40;99.90
16247;DHT22;8231;50.866;7.944;2022-11-21T08:03:30;5.40;99.90
16247;DHT22;8231;50.866;7.944;2022-11-21T08:06:00;5.40;99.90
16247;DHT22;8231;50.866;7.944;2022-11-21T08:08:29;5.40;99.90
16247;DHT22;8231;50.866;7.944;2022-11-21T08:11:03;5.40;99.90
16247;DHT22;8231;50.866;7.944;2022-11-21T08:13:32;5.50;99.90
16247;DHT22;8231;50.866;7.944;2022-11-21T08:16:01;5.70;99.90
16247;DHT22;8231;50.866;7.944;2022-11-21T08:18:30;5.90;99.90
16247;DHT22;8231;50.866;7.944;2022-11-21T08:21:00;5.60;99.90
16247;DHT22;8231;50.866;7.944;2022-11-21T08:23:29;5.60;99.90
16247;DHT22;8231;50.866;7.944;2022-11-21T08:26:02;5.90;99.90
16247;DHT22;8231;50.866;7.944;2022-11-21T08:28:30;5.70;99.90
16247;DHT22;8231;50.866;7.944;2022-11-21T08:31:02;5.70;99.90
16247;DHT22;8231;50.866;7.944;2022-11-21T08:33:30;5.80;99.90
16247;DHT22;8231;50.866;7.944;2022-11-21T08:36:02;5.80;99.90
16247;DHT22;8231;50.866;7.944;2022-11-21T08:38:31;6.00;99.90
16247;DHT22;8231;50.866;7.944;2022-11-21T08:40:59;5.80;99.90
16247;DHT22;8231;50.866;7.944;2022-11-21T08:43:46;5.80;99.90
16247;DHT22;8231;50.866;7.944;2022-11-21T08:46:14;5.80;99.90
16247;DHT22;8231;50.866;7.944;2022-11-21T08:48:44;5.90;99.90
16247;DHT22;8231;50.866;7.944;2022-11-21T08:51:12;5.80;99.90
16247;DHT22;8231;50.866;7.944;2022-11-21T08:53:40;5.80;99.90
16247;DHT22;8231;50.866;7.944;2022-11-21T08:56:08;6.20;99.90
16247;DHT22;8231;50.866;7.944;2022-11-21T08:58:36;5.80;99.90
16247;DHT22;8231;50.866;7.944;2022-11-21T09:01:06;6.10;99.90
16247;DHT22;8231;50.866;7.944;2022-11-21T09:03:34;5.90;99.90
16247;DHT22;8231;50.866;7.944;2022-11-21T09:06:03;5.90;99.90
16247;DHT22;8231;50.866;7.944;2022-11-21T09:08:32;5.90;99.90
16247;DHT22;8231;50.866;7.944;2022-11-21T09:11:03;5.90;99.90
16247;DHT22;8231;50.866;7.944;2022-11-21T09:13:31;6.00;99.90
16247;DHT22;8231;50.866;7.944;2022-11-21T09:15:59;6.00;99.90
16247;DHT22;8231;50.866;7.944;2022-11-21T09:18:50;6.10;99.90
16247;DHT22;8231;50.866;7.944;2022-11-21T09:21:19;6.10;99.90
16247;DHT22;8231;50.866;7.944;2022-11-21T09:23:47;6.10;99.90
16247;DHT22;8231;50.866;7.944;2022-11-21T09:26:16;6.10;99.90
16247;DHT22;8231;50.866;7.944;2022-11-21T09:28:44;6.10;99.90
16247;DHT22;8231;50.866;7.944;2022-11-21T09:31:12;6.10;99.90
16247;DHT22;8231;50.866;7.944;2022-11-21T09:33:41;6.10;99.90
16247;DHT22;8231;50.866;7.944;2022-11-21T09:36:10;6.10;99.90
16247;DHT22;8231;50.866;7.944;2022-11-21T09:38:38;6.10;99.90
16247;DHT22;8231;50.866;7.944;2022-11-21T09:41:17;6.10;99.90
16247;DHT22;8231;50.866;7.944;2022-11-21T09:44:15;6.10;99.90
16247;DHT22;8231;50.866;7.944;2022-11-21T09:46:48;6.10;99.90
16247;DHT22;8231;50.866;7.944;2022-11-21T09:49:16;6.10;99.90
16247;DHT22;8231;50.866;7.944;2022-11-21T09:51:46;6.20;99.90
16247;DHT22;8231;50.866;7.944;2022-11-21T09:54:18;6.20;99.90
16247;DHT22;8231;50.866;7.944;2022-11-21T09:56:48;6.30;99.90
16247;DHT22;8231;50.866;7.944;2022-11-21T09:59:27;6.20;99.90
16247;DHT22;8231;50.866;7.944;2022-11-21T10:01:58;6.30;99.90
16247;DHT22;8231;50.866;7.944;2022-11-21T10:04:27;6.30;99.90
16247;DHT22;8231;50.866;7.944;2022-11-21T10:07:01;6.30;99.90
16247;DHT22;8231;50.866;7.944;2022-11-21T10:09:43;6.40;99.90
16247;DHT22;8231;50.866;7.944;2022-11-21T10:12:23;6.50;99.90
16247;DHT22;8231;50.866;7.944;2022-11-21T10:15:27;6.50;99.90
16247;DHT22;8231;50.866;7.944;2022-11-21T10:18:12;6.60;99.90
16247;DHT22;8231;50.866;7.944;2022-11-21T10:20:53;6.70;99.90
16247;DHT22;8231;50.866;7.944;2022-11-21T10:23:35;6.70;99.90
16247;DHT22;8231;50.866;7.944;2022-11-21T10:26:14;6.90;99.90
16247;DHT22;8231;50.866;7.944;2022-11-21T10:28:49;7.10;99.90
16247;DHT22;8231;50.866;7.944;2022-11-21T10:31:18;7.30;99.90
16247;DHT22;8231;50.866;7.944;2022-11-21T10:33:48;7.30;99.90
16247;DHT22;8231;50.866;7.944;2022-11-21T10:36:24;7.30;99.90
16247;DHT22;8231;50.866;7.944;2022-11-21T10:38:58;7.20;99.90
16247;DHT22;8231;50.866;7.944;2022-11-21T10:41:37;7.20;99.90
16247;DHT22;8231;50.866;7.944;2022-11-21T10:44:16;7.40;99.90
16247;DHT22;8231;50.866;7.944;2022-11-21T10:47:13;7.50;99.90
16247;DHT22;8231;50.866;7.944;2022-11-21T10:49:42;7.60;99.90
16247;DHT22;8231;50.866;7.944;2022-11-21T10:52:16;7.60;99.90
16247;DHT22;8231;50.866;7.944;2022-11-21T10:55:06;7.70;99.90
16247;DHT22;8231;50.866;7.944;2022-11-21T10:57:42;7.70;99.90
16247;DHT22;8231;50.866;7.944;2022-11-21T11:00:17;7.90;99.90
16247;DHT22;8231;50.866;7.944;2022-11-21T11:03:09;8.00;99.90
16247;DHT22;8231;50.866;7.944;2022-11-21T11:05:53;8.00;99.90
16247;DHT22;8231;50.866;7.944;2022-11-21T11:08:22;8.00;99.90
16247;DHT22;8231;50.866;7.944;2022-11-21T11:11:06;8.20;99.90
16247;DHT22;8231;50.866;7.944;2022-11-21T11:13:52;8.00;99.90
16247;DHT22;8231;50.866;7.944;2022-11-21T11:16:23;8.10;99.90
16247;DHT22;8231;50.866;7.944;2022-11-21T11:18:56;8.20;99.90
16247;DHT22;8231;50.866;7.944;2022-11-21T11:21:26;8.40;99.90
16247;DHT22;8231;50.866;7.944;2022-11-21T11:24:19;8.40;99.90
16247;DHT22;8231;50.866;7.944;2022-11-21T11:26:56;8.30;99.90
16247;DHT22;8231;50.866;7.944;2022-11-21T11:29:26;8.20;99.90
16247;DHT22;8231;50.866;7.944;2022-11-21T11:32:00;8.10;99.90
16247;DHT22;8231;50.866;7.944;2022-11-21T11:34:37;8.10;99.90
16247;DHT22;8231;50.866;7.944;2022-11-21T11:37:12;8.10;99.90
16247;DHT22;8231;50.866;7.944;2022-11-21T11:39:46;8.10;99.90
16247;DHT22;8231;50.866;7.944;2022-11-21T11:42:37;8.10;99.90
16247;DHT22;8231;50.866;7.944;2022-11-21T11:45:57;8.00;99.90
16247;DHT22;8231;50.866;7.944;2022-11-21T11:48:45;7.90;99.90
16247;DHT22;8231;50.866;7.944;2022-11-21T11:51:36;7.80;99.90
16247;DHT22;8231;50.866;7.944;2022-11-21T11:54:10;7.60;99.90
16247;DHT22;8231;50.866;7.944;2022-11-21T11:56:40;7.50;99.90
16247;DHT22;8231;50.866;7.944;2022-11-21T11:59:14;7.50;99.90
16247;DHT22;8231;50.866;7.944;2022-11-21T12:01:49;7.50;99.90
16247;DHT22;8231;50.866;7.944;2022-11-21T12:04:19;7.50;99.90
16247;DHT22;8231;50.866;7.944;2022-11-21T12:06:52;7.40;99.90
16247;DHT22;8231;50.866;7.944;2022-11-21T12:09:47;7.40;99.90
16247;DHT22;8231;50.866;7.944;2022-11-21T12:12:25;7.40;99.90
16247;DHT22;8231;50.866;7.944;2022-11-21T12:15:08;7.40;99.90
16247;DHT22;8231;50.866;7.944;2022-11-21T12:18:07;7.40;99.90
16247;DHT22;8231;50.866;7.944;2022-11-21T12:20:44;7.50;99.90
16247;DHT22;8231;50.866;7.944;2022-11-21T12:23:14;7.50;99.90
16247;DHT22;8231;50.866;7.944;2022-11-21T12:26:01;7.50;99.90
16247;DHT22;8231;50.866;7.944;2022-11-21T12:28:41;7.50;99.90
16247;DHT22;8231;50.866;7.944;2022-11-21T12:31:17;7.60;99.90
16247;DHT22;8231;50.866;7.944;2022-11-21T12:33:55;7.50;99.90
16247;DHT22;8231;50.866;7.944;2022-11-21T12:36:31;7.30;99.90
16247;DHT22;8231;50.866;7.944;2022-11-21T12:39:17;7.30;99.90
16247;DHT22;8231;50.866;7.944;2022-11-21T12:41:48;7.30;99.90
16247;DHT22;8231;50.866;7.944;2022-11-21T12:44:50;7.40;99.90
16247;DHT22;8231;50.866;7.944;2022-11-21T12:47:49;7.30;99.90
16247;DHT22;8231;50.866;7.944;2022-11-21T12:50:46;7.30;99.90
16247;DHT22;8231;50.866;7.944;2022-11-21T12:53:39;7.30;99.90
16247;DHT22;8231;50.866;7.944;2022-11-21T12:56:36;7.20;99.90
16247;DHT22;8231;50.866;7.944;2022-11-21T12:59:08;7.20;99.90
16247;DHT22;8231;50.866;7.944;2022-11-21T13:01:46;7.20;99.90
16247;DHT22;8231;50.866;7.944;2022-11-21T13:04:21;7.30;99.90
16247;DHT22;8231;50.866;7.944;2022-11-21T13:06:53;7.10;99.90
16247;DHT22;8231;50.866;7.944;2022-11-21T13:09:23;7.40;99.90
16247;DHT22;8231;50.866;7.944;2022-11-21T13:11:58;7.00;99.90
16247;DHT22;8231;50.866;7.944;2022-11-21T13:14:41;7.10;99.90
16247;DHT22;8231;50.866;7.944;2022-11-21T13:17:21;7.10;99.90
16247;DHT22;8231;50.866;7.944;2022-11-21T13:19:56;7.10;99.90
16247;DHT22;8231;50.866;7.944;2022-11-21T13:22:56;7.20;99.90
16247;DHT22;8231;50.866;7.944;2022-11-21T13:25:43;7.20;99.90
16247;DHT22;8231;50.866;7.944;2022-11-21T13:28:33;7.20;99.90
16247;DHT22;8231;50.866;7.944;2022-11-21T13:33:50;7.30;99.90
16247;DHT22;8231;50.866;7.944;2022-11-21T13:36:39;7.50;99.90
16247;DHT22;8231;50.866;7.944;2022-11-21T13:39:36;7.60;99.90
16247;DHT22;8231;50.866;7.944;2022-11-21T13:42:12;7.60;99.90
16247;DHT22;8231;50.866;7.944;2022-11-21T13:44:58;7.60;99.90
16247;DHT22;8231;50.866;7.944;2022-11-21T13:51:12;7.50;99.90
16247;DHT22;8231;50.866;7.944;2022-11-21T13:54:05;7.40;99.90
16247;DHT22;8231;50.866;7.944;2022-11-21T13:56:42;7.30;99.90
16247;DHT22;8231;50.866;7.944;2022-11-21T13:59:35;7.30;99.90
16247;DHT22;8231;50.866;7.944;2022-11-21T14:02:34;7.20;99.90
16247;DHT22;8231;50.866;7.944;2022-11-21T14:08:19;7.30;99.90
16247;DHT22;8231;50.866;7.944;2022-11-21T14:10:51;7.40;99.90
16247;DHT22;8231;50.866;7.944;2022-11-21T14:13:25;7.50;99.90
16247;DHT22;8231;50.866;7.944;2022-11-21T14:16:16;7.50;99.90
16247;DHT22;8231;50.866;7.944;2022-11-21T14:18:46;7.50;99.90
16247;DHT22;8231;50.866;7.944;2022-11-21T14:21:19;7.40;99.90
16247;DHT22;8231;50.866;7.944;2022-11-21T14:23:48;7.40;99.90
16247;DHT22;8231;50.866;7.944;2022-11-21T14:26:19;7.30;99.90
16247;DHT22;8231;50.866;7.944;2022-11-21T14:28:47;7.20;99.90
16247;DHT22;8231;50.866;7.944;2022-11-21T14:31:16;7.20;99.90
16247;DHT22;8231;50.866;7.944;2022-11-21T14:33:45;7.40;99.90
16247;DHT22;8231;50.866;7.944;2022-11-21T14:36:15;7.10;99.90
16247;DHT22;8231;50.866;7.944;2022-11-21T14:38:45;7.00;99.90
16247;DHT22;8231;50.866;7.944;2022-11-21T14:41:36;6.90;99.90
16247;DHT22;8231;50.866;7.944;2022-11-21T14:44:14;6.70;99.90
16247;DHT22;8231;50.866;7.944;2022-11-21T14:46:43;6.60;99.90
16247;DHT22;8231;50.866;7.944;2022-11-21T14:49:25;6.70;99.90
16247;DHT22;8231;50.866;7.944;2022-11-21T14:52:15;6.50;99.90
16247;DHT22;8231;50.866;7.944;2022-11-21T14:54:50;6.40;99.90
16247;DHT22;8231;50.866;7.944;2022-11-21T14:57:41;6.20;99.90
16247;DHT22;8231;50.866;7.944;2022-11-21T15:00:14;6.50;99.90
16247;DHT22;8231;50.866;7.944;2022-11-21T15:03:03;6.00;99.90
16247;DHT22;8231;50.866;7.944;2022-11-21T15:05:33;5.90;99.90
16247;DHT22;8231;50.866;7.944;2022-11-21T15:08:22;5.80;99.90
16247;DHT22;8231;50.866;7.944;2022-11-21T15:11:11;5.60;99.90
16247;DHT22;8231;50.866;7.944;2022-11-21T15:13:42;5.50;99.90
16247;DHT22;8231;50.866;7.944;2022-11-21T15:16:33;5.40;99.90
16247;DHT22;8231;50.866;7.944;2022-11-21T15:19:07;5.40;99.90
16247;DHT22;8231;50.866;7.944;2022-11-21T15:21:35;5.30;99.90
16247;DHT22;8231;50.866;7.944;2022-11-21T15:24:15;5.10;99.90
16247;DHT22;8231;50.866;7.944;2022-11-21T15:26:44;5.00;99.90
16247;DHT22;8231;50.866;7.944;2022-11-21T15:29:21;4.90;99.90
16247;DHT22;8231;50.866;7.944;2022-11-21T15:32:05;4.70;99.90
16247;DHT22;8231;50.866;7.944;2022-11-21T15:34:33;4.60;99.90
16247;DHT22;8231;50.866;7.944;2022-11-21T15:37:15;4.50;99.90
16247;DHT22;8231;50.866;7.944;2022-11-21T15:39:45;4.40;99.90
16247;DHT22;8231;50.866;7.944;2022-11-21T15:42:34;4.20;99.90
16247;DHT22;8231;50.866;7.944;2022-11-21T15:45:21;4.10;99.90
16247;DHT22;8231;50.866;7.944;2022-11-21T15:47:49;3.90;99.90
16247;DHT22;8231;50.866;7.944;2022-11-21T15:50:17;3.70;99.90
16247;DHT22;8231;50.866;7.944;2022-11-21T15:52:47;3.60;99.90
16247;DHT22;8231;50.866;7.944;2022-11-21T15:55:18;3.50;99.90
16247;DHT22;8231;50.866;7.944;2022-11-21T15:57:46;3.50;99.90
16247;DHT22;8231;50.866;7.944;2022-11-21T16:00:16;3.50;99.90
16247;DHT22;8231;50.866;7.944;2022-11-21T16:02:45;3.40;99.90
16247;DHT22;8231;50.866;7.944;2022-11-21T16:05:14;3.30;99.90
16247;DHT22;8231;50.866;7.944;2022-11-21T16:07:42;3.30;99.90
16247;DHT22;8231;50.866;7.944;2022-11-21T16:10:10;3.30;99.90
16247;DHT22;8231;50.866;7.944;2022-11-21T16:12:48;3.30;99.90
16247;DHT22;8231;50.866;7.944;2022-11-21T16:15:18;3.20;99.90
16247;DHT22;8231;50.866;7.944;2022-11-21T16:17:46;3.20;99.90
16247;DHT22;8231;50.866;7.944;2022-11-21T16:20:14;3.20;99.90
16247;DHT22;8231;50.866;7.944;2022-11-21T16:22:42;3.20;99.90
16247;DHT22;8231;50.866;7.944;2022-11-21T16:25:13;3.20;99.90
16247;DHT22;8231;50.866;7.944;2022-11-21T16:27:42;3.20;99.90
16247;DHT22;8231;50.866;7.944;2022-11-21T16:30:10;3.20;99.90
16247;DHT22;8231;50.866;7.944;2022-11-21T16:32:40;3.20;99.90
16247;DHT22;8231;50.866;7.944;2022-11-21T16:35:08;3.20;99.90
16247;DHT22;8231;50.866;7.944;2022-11-21T16:37:37;3.20;99.90
16247;DHT22;8231;50.866;7.944;2022-11-21T16:40:06;3.20;99.90
16247;DHT22;8231;50.866;7.944;2022-11-21T16:42:34;3.20;99.90
16247;DHT22;8231;50.866;7.944;2022-11-21T16:45:03;3.20;99.90
16247;DHT22;8231;50.866;7.944;2022-11-21T16:47:31;3.20;99.90
16247;DHT22;8231;50.866;7.944;2022-11-21T16:50:00;3.30;99.90